createdAt,value
2019-02-22T00:00:01.189Z,43.55
2019-02-22T00:01:01.170Z,43.08
2019-02-22T00:02:01.181Z,42.41
2019-02-22T00:03:01.166Z,41.37
2019-02-22T00:04:01.132Z,40.61
2019-02-22T00:05:01.118Z,39.47
2019-02-22T00:06:01.106Z,38.53
2019-02-22T00:07:01.081Z,37.67
2019-02-22T00:08:01.074Z,36.34
2019-02-22T00:09:01.056Z,35.68
2019-02-22T00:10:01.040Z,34.44
2019-02-22T00:11:01.098Z,34.16
2019-02-22T00:12:01.010Z,33.02
2019-02-22T00:13:00.996Z,32.07
2019-02-22T00:14:00.985Z,31.69
2019-02-22T00:15:00.967Z,31.02
2019-02-22T00:16:00.950Z,30.08
2019-02-22T00:17:00.938Z,28.75
2019-02-22T00:18:00.917Z,27.7
2019-02-22T00:19:00.662Z,26.85
2019-02-22T00:20:00.891Z,25.71
2019-02-22T00:21:00.878Z,25.43
2019-02-22T00:22:00.912Z,24.29
2019-02-22T00:23:00.866Z,23.82
2019-02-22T00:24:00.835Z,22.67
2019-02-22T00:25:00.819Z,22.11
2019-02-22T00:26:00.824Z,21.25
2019-02-22T00:27:00.539Z,20.68
2019-02-22T00:28:00.782Z,19.73
2019-02-22T00:29:00.759Z,18.98
2019-02-22T00:30:00.743Z,18.02
2019-02-22T00:31:00.727Z,17.55
2019-02-22T00:32:00.865Z,16.7
2019-02-22T00:33:00.721Z,16.13
2019-02-22T00:34:00.742Z,15.75
2019-02-22T00:35:00.844Z,15.08
2019-02-22T00:36:00.811Z,14.51
2019-02-22T00:37:00.745Z,13.57
2019-02-22T00:38:00.627Z,13.19
2019-02-22T00:39:00.619Z,12.62
2019-02-22T00:40:00.597Z,12.24
2019-02-22T00:41:00.662Z,11.48
2019-02-22T00:42:00.325Z,11
2019-02-22T00:43:00.568Z,10.44
2019-02-22T00:44:00.538Z,10.05
2019-02-22T00:45:00.524Z,9.67
2019-02-22T00:46:00.505Z,9.01
2019-02-22T00:47:00.506Z,8.73
2019-02-22T00:48:00.476Z,8.16
2019-02-22T00:49:00.466Z,7.87
2019-02-22T00:50:00.453Z,7.5
2019-02-22T00:51:00.431Z,6.54
2019-02-22T00:52:00.416Z,6.26
2019-02-22T00:53:00.159Z,5.98
2019-02-22T00:54:00.386Z,5.31
2019-02-22T00:55:00.410Z,5.22
2019-02-22T00:56:00.357Z,4.93
2019-02-22T00:57:00.345Z,4.17
2019-02-22T00:58:00.330Z,3.79
2019-02-22T00:59:00.338Z,3.51
2019-02-22T01:00:00.056Z,3.13
2019-02-22T01:01:00.291Z,2.56
2019-02-22T01:02:00.316Z,1.99
2019-02-22T01:03:00.008Z,2.18
2019-02-22T01:04:00.250Z,1.7
2019-02-22T01:05:00.314Z,1.51
2019-02-22T01:06:00.215Z,1.23
2019-02-22T01:07:00.201Z,0.85
2019-02-22T01:08:00.183Z,0.38
2019-02-22T01:09:00.176Z,0.09
2019-02-22T01:10:00.362Z,0
2019-02-22T01:11:00.147Z,0
2019-02-22T01:12:00.141Z,0
2019-02-22T01:13:00.109Z,0
2019-02-22T01:14:00.094Z,0
2019-02-22T01:15:00.337Z,0
2019-02-22T01:16:00.066Z,0
2019-02-22T01:17:00.048Z,0
2019-02-22T01:18:00.041Z,0
2019-02-22T01:19:00.023Z,0
2019-02-22T01:20:00.009Z,0
2019-02-22T01:20:59.997Z,0
2019-02-22T01:21:59.979Z,0
2019-02-22T01:22:59.716Z,0
2019-02-22T01:23:59.948Z,0
2019-02-22T01:24:59.937Z,0
2019-02-22T01:25:59.919Z,0
2019-02-22T01:26:59.906Z,0
2019-02-22T01:27:59.892Z,0
2019-02-22T01:28:59.873Z,0
2019-02-22T01:29:59.861Z,0
2019-02-22T01:30:59.844Z,0
2019-02-22T01:31:59.829Z,0
2019-02-22T01:32:59.819Z,0
2019-02-22T01:33:59.806Z,0
2019-02-22T01:34:59.793Z,0
2019-02-22T01:35:59.780Z,0
2019-02-22T01:36:59.759Z,0
2019-02-22T01:37:59.747Z,0
2019-02-22T01:38:59.737Z,0
2019-02-22T01:39:59.766Z,0
2019-02-22T01:40:59.699Z,0
2019-02-22T01:41:59.680Z,0
2019-02-22T01:42:59.673Z,0
2019-02-22T01:43:59.659Z,0
2019-02-22T01:44:59.638Z,0
2019-02-22T01:45:59.624Z,0
2019-02-22T01:46:59.612Z,0
2019-02-22T01:47:59.611Z,0
2019-02-22T01:48:59.587Z,0
2019-02-22T01:49:59.567Z,0
2019-02-22T01:50:59.563Z,0
2019-02-22T01:51:59.540Z,0
2019-02-22T01:52:59.523Z,0
2019-02-22T01:53:59.510Z,0
2019-02-22T01:54:59.496Z,0
2019-02-22T01:55:59.481Z,0
2019-02-22T01:56:59.461Z,0
2019-02-22T01:57:59.455Z,0
2019-02-22T01:58:59.442Z,0
2019-02-22T01:59:59.424Z,0
2019-02-22T02:00:59.409Z,0
2019-02-22T02:01:59.393Z,0
2019-02-22T02:02:59.396Z,0
2019-02-22T02:03:59.375Z,0
2019-02-22T02:04:59.351Z,0
2019-02-22T02:05:59.331Z,0
2019-02-22T02:06:59.334Z,0
2019-02-22T02:07:59.311Z,0
2019-02-22T02:08:59.291Z,0
2019-02-22T02:09:59.275Z,0
2019-02-22T02:10:59.260Z,0
2019-02-22T02:12:01.777Z,0
2019-02-22T02:12:59.338Z,0
2019-02-22T02:13:59.217Z,0
2019-02-22T02:14:59.198Z,0
2019-02-22T02:15:59.184Z,0
2019-02-22T02:16:59.169Z,0
2019-02-22T02:17:59.157Z,0
2019-02-22T02:18:59.136Z,0
2019-02-22T02:19:59.126Z,0
2019-02-22T02:20:59.127Z,0
2019-02-22T02:21:59.100Z,0
2019-02-22T02:22:59.085Z,0
2019-02-22T02:23:59.070Z,0
2019-02-22T02:24:59.054Z,0
2019-02-22T02:25:59.042Z,0
2019-02-22T02:26:59.024Z,0
2019-02-22T02:27:59.014Z,0
2019-02-22T02:28:58.997Z,0
2019-02-22T02:29:58.987Z,0
2019-02-22T02:30:58.989Z,0
2019-02-22T02:31:58.950Z,0
2019-02-22T02:32:58.939Z,0
2019-02-22T02:33:58.925Z,0
2019-02-22T02:34:58.912Z,0
2019-02-22T02:35:58.895Z,0
2019-02-22T02:36:58.880Z,0
2019-02-22T02:37:58.874Z,0
2019-02-22T02:38:58.852Z,0
2019-02-22T02:39:58.832Z,0
2019-02-22T02:41:11.538Z,0
2019-02-22T02:41:58.822Z,0
2019-02-22T02:42:58.791Z,0
2019-02-22T02:43:58.774Z,0
2019-02-22T02:44:58.764Z,0
2019-02-22T02:45:58.750Z,0
2019-02-22T02:46:58.751Z,0
2019-02-22T02:47:58.722Z,0
2019-02-22T02:48:58.704Z,0
2019-02-22T02:49:58.689Z,0
2019-02-22T02:50:58.683Z,0
2019-02-22T02:51:58.659Z,0
2019-02-22T02:52:58.397Z,0
2019-02-22T02:53:58.638Z,0
2019-02-22T02:54:58.621Z,0
2019-02-22T02:55:58.603Z,0
2019-02-22T02:56:58.591Z,0
2019-02-22T02:57:58.584Z,0
2019-02-22T02:58:58.561Z,0
2019-02-22T02:59:58.550Z,0
2019-02-22T03:00:58.539Z,0
2019-02-22T03:01:58.516Z,0
2019-02-22T03:02:58.522Z,0
2019-02-22T03:03:58.485Z,0
2019-02-22T03:04:58.478Z,0
2019-02-22T03:05:58.455Z,0
2019-02-22T03:06:58.475Z,0
2019-02-22T03:07:58.428Z,0
2019-02-22T03:08:58.413Z,0
2019-02-22T03:09:58.437Z,0
2019-02-22T03:10:58.393Z,0
2019-02-22T03:11:58.369Z,0
2019-02-22T03:12:58.357Z,0
2019-02-22T03:13:58.345Z,0
2019-02-22T03:14:58.323Z,0
2019-02-22T03:15:58.350Z,0
2019-02-22T03:16:58.299Z,0
2019-02-22T03:17:58.310Z,0
2019-02-22T03:18:58.269Z,0
2019-02-22T03:19:58.263Z,0
2019-02-22T03:20:58.238Z,0
2019-02-22T03:21:58.230Z,0
2019-02-22T03:22:58.216Z,0
2019-02-22T03:23:58.204Z,0
2019-02-22T03:24:58.183Z,0
2019-02-22T03:25:58.171Z,0
2019-02-22T03:26:58.216Z,0
2019-02-22T03:27:58.140Z,0
2019-02-22T03:28:58.129Z,0
2019-02-22T03:29:58.110Z,0
2019-02-22T03:30:58.107Z,0
2019-02-22T03:31:58.097Z,0
2019-02-22T03:32:58.072Z,0
2019-02-22T03:33:58.070Z,0
2019-02-22T03:34:58.037Z,0
2019-02-22T03:35:58.025Z,0
2019-02-22T03:36:58.007Z,0
2019-02-22T03:37:57.747Z,0
2019-02-22T03:38:57.982Z,0
2019-02-22T03:39:57.996Z,0
2019-02-22T03:40:57.949Z,0
2019-02-22T03:41:57.938Z,0
2019-02-22T03:42:57.920Z,0
2019-02-22T03:43:57.921Z,0
2019-02-22T03:44:57.901Z,0
2019-02-22T03:45:57.875Z,0
2019-02-22T03:46:57.863Z,0
2019-02-22T03:47:57.845Z,0
2019-02-22T03:48:57.884Z,0
2019-02-22T03:49:57.821Z,0
2019-02-22T03:50:57.801Z,0
2019-02-22T03:51:57.790Z,0
2019-02-22T03:52:57.776Z,0
2019-02-22T03:54:00.013Z,0
2019-02-22T03:54:57.745Z,0
2019-02-22T03:55:57.735Z,0
2019-02-22T03:56:57.714Z,0
2019-02-22T03:57:57.698Z,0
2019-02-22T03:58:57.694Z,0
2019-02-22T03:59:57.671Z,0
2019-02-22T04:00:57.657Z,0
2019-02-22T04:01:57.649Z,0
2019-02-22T04:02:57.634Z,0
2019-02-22T04:03:57.616Z,0
2019-02-22T04:04:57.599Z,0
2019-02-22T04:05:57.589Z,0
2019-02-22T04:06:57.569Z,0
2019-02-22T04:07:57.306Z,0
2019-02-22T04:08:57.693Z,0
2019-02-22T04:09:57.538Z,0
2019-02-22T04:10:57.533Z,0
2019-02-22T04:11:57.495Z,0
2019-02-22T04:12:57.481Z,0
2019-02-22T04:13:57.469Z,0
2019-02-22T04:14:57.453Z,0
2019-02-22T04:15:57.440Z,0
2019-02-22T04:16:57.423Z,0
2019-02-22T04:17:57.410Z,0
2019-02-22T04:18:57.392Z,0
2019-02-22T04:19:57.381Z,0
2019-02-22T04:20:57.124Z,0
2019-02-22T04:21:57.353Z,0
2019-02-22T04:22:57.344Z,0
2019-02-22T04:23:57.322Z,0
2019-02-22T04:24:57.058Z,0
2019-02-22T04:25:57.293Z,0
2019-02-22T04:26:57.278Z,0
2019-02-22T04:27:57.270Z,0
2019-02-22T04:28:57.250Z,0
2019-02-22T04:29:57.234Z,0
2019-02-22T04:30:57.222Z,0
2019-02-22T04:31:57.211Z,0
2019-02-22T04:32:57.195Z,0
2019-02-22T04:33:57.185Z,0
2019-02-22T04:34:57.158Z,0
2019-02-22T04:35:57.146Z,0
2019-02-22T04:36:57.133Z,0
2019-02-22T04:37:57.117Z,0
2019-02-22T04:38:57.110Z,0
2019-02-22T04:39:57.083Z,0
2019-02-22T04:40:57.074Z,0
2019-02-22T04:42:00.734Z,0
2019-02-22T04:42:57.045Z,0
2019-02-22T04:43:56.783Z,0
2019-02-22T04:44:57.013Z,0
2019-02-22T04:45:56.996Z,0
2019-02-22T04:46:57.047Z,0
2019-02-22T04:47:56.966Z,0
2019-02-22T04:48:56.952Z,0
2019-02-22T04:49:56.942Z,0
2019-02-22T04:50:56.676Z,0
2019-02-22T04:51:56.925Z,0
2019-02-22T04:52:56.902Z,0
2019-02-22T04:53:56.899Z,0
2019-02-22T04:54:56.872Z,0
2019-02-22T04:55:56.859Z,0
2019-02-22T04:56:56.586Z,0
2019-02-22T04:57:56.823Z,0
2019-02-22T04:58:56.811Z,0
2019-02-22T04:59:56.790Z,0
2019-02-22T05:00:56.781Z,0
2019-02-22T05:01:56.761Z,0
2019-02-22T05:02:56.747Z,0
2019-02-22T05:03:56.730Z,0
2019-02-22T05:04:56.725Z,0
2019-02-22T05:05:56.702Z,0
2019-02-22T05:06:56.687Z,0
2019-02-22T05:07:56.676Z,0
2019-02-22T05:08:56.666Z,0
2019-02-22T05:09:56.643Z,0
2019-02-22T05:10:56.378Z,0
2019-02-22T05:11:56.620Z,0
2019-02-22T05:12:56.602Z,0
2019-02-22T05:13:56.603Z,0
2019-02-22T05:14:56.568Z,0
2019-02-22T05:15:56.557Z,0
2019-02-22T05:16:56.582Z,0
2019-02-22T05:17:56.528Z,0
2019-02-22T05:18:56.527Z,0
2019-02-22T05:19:56.493Z,0
2019-02-22T05:20:56.502Z,0
2019-02-22T05:21:56.469Z,0
2019-02-22T05:23:07.494Z,0
2019-02-22T05:23:56.443Z,0
2019-02-22T05:24:56.422Z,0
2019-02-22T05:25:56.406Z,0
2019-02-22T05:26:56.398Z,0
2019-02-22T05:27:56.376Z,0
2019-02-22T05:28:56.360Z,0
2019-02-22T05:29:56.097Z,0
2019-02-22T05:30:56.332Z,0
2019-02-22T05:31:56.317Z,0
2019-02-22T05:32:56.303Z,0
2019-02-22T05:33:56.287Z,0
2019-02-22T05:34:56.271Z,0
2019-02-22T05:35:56.264Z,0
2019-02-22T05:36:56.244Z,0
2019-02-22T05:37:55.983Z,0
2019-02-22T05:38:56.220Z,0
2019-02-22T05:39:56.198Z,0
2019-02-22T05:40:56.198Z,0
2019-02-22T05:41:56.170Z,0
2019-02-22T05:42:56.157Z,0
2019-02-22T05:43:56.140Z,0
2019-02-22T05:44:55.882Z,0
2019-02-22T05:45:55.869Z,0
2019-02-22T05:47:02.970Z,0
2019-02-22T05:47:56.081Z,0
2019-02-22T05:48:56.070Z,0
2019-02-22T05:49:56.056Z,0
2019-02-22T05:50:56.033Z,0
2019-02-22T05:51:56.019Z,0
2019-02-22T05:52:56.010Z,0
2019-02-22T05:53:55.987Z,0
2019-02-22T05:54:55.978Z,0
2019-02-22T05:55:55.960Z,0
2019-02-22T05:56:57.684Z,0
2019-02-22T05:57:55.947Z,0
2019-02-22T05:58:55.918Z,0
2019-02-22T05:59:55.943Z,0
2019-02-22T06:00:55.921Z,0
2019-02-22T06:01:55.869Z,0
2019-02-22T06:02:55.855Z,0
2019-02-22T06:03:55.846Z,0
2019-02-22T06:04:55.824Z,0
2019-02-22T06:05:55.572Z,0
2019-02-22T06:06:55.805Z,0
2019-02-22T06:07:55.783Z,0
2019-02-22T06:08:55.795Z,0
2019-02-22T06:09:55.750Z,0
2019-02-22T06:10:55.734Z,0
2019-02-22T06:11:55.731Z,0
2019-02-22T06:12:55.703Z,0
2019-02-22T06:13:55.691Z,0
2019-02-22T06:14:55.674Z,0
2019-02-22T06:15:55.663Z,0
2019-02-22T06:16:55.643Z,0
2019-02-22T06:17:55.637Z,0
2019-02-22T06:18:55.615Z,0
2019-02-22T06:19:55.598Z,0
2019-02-22T06:20:55.583Z,0
2019-02-22T06:21:55.572Z,0
2019-02-22T06:22:55.558Z,0
2019-02-22T06:23:55.542Z,0
2019-02-22T06:24:55.531Z,0
2019-02-22T06:25:55.507Z,0
2019-02-22T06:26:55.494Z,0
2019-02-22T06:27:55.487Z,0
2019-02-22T06:28:55.218Z,0
2019-02-22T06:29:55.451Z,0
2019-02-22T06:30:55.452Z,0
2019-02-22T06:31:55.592Z,0
2019-02-22T06:32:55.419Z,0
2019-02-22T06:33:55.388Z,0
2019-02-22T06:34:55.375Z,0
2019-02-22T06:35:55.361Z,0
2019-02-22T06:37:04.200Z,0
2019-02-22T06:37:55.332Z,0
2019-02-22T06:38:55.316Z,0
2019-02-22T06:39:55.304Z,0
2019-02-22T06:40:55.284Z,0
2019-02-22T06:41:55.269Z,0
2019-02-22T06:42:55.253Z,0
2019-02-22T06:43:55.237Z,0
2019-02-22T06:44:55.292Z,0
2019-02-22T06:45:55.212Z,0
2019-02-22T06:46:55.191Z,0
2019-02-22T06:47:55.181Z,0
2019-02-22T06:48:55.165Z,0
2019-02-22T06:49:55.155Z,0
2019-02-22T06:50:54.884Z,0
2019-02-22T06:51:55.123Z,0
2019-02-22T06:52:55.101Z,0
2019-02-22T06:53:55.091Z,0
2019-02-22T06:54:54.826Z,0
2019-02-22T06:55:54.812Z,0
2019-02-22T06:56:55.043Z,0
2019-02-22T06:57:55.029Z,0
2019-02-22T06:58:55.021Z,0
2019-02-22T06:59:54.746Z,0
2019-02-22T07:00:54.736Z,0
2019-02-22T07:01:54.716Z,0
2019-02-22T07:02:54.951Z,0
2019-02-22T07:03:54.938Z,0
2019-02-22T07:04:54.925Z,0
2019-02-22T07:05:54.905Z,0
2019-02-22T07:06:54.891Z,0
2019-02-22T07:07:56.777Z,0
2019-02-22T07:08:54.864Z,0
2019-02-22T07:09:54.847Z,0
2019-02-22T07:10:54.839Z,0
2019-02-22T07:11:54.820Z,0
2019-02-22T07:12:59.639Z,0
2019-02-22T07:13:54.789Z,0
2019-02-22T07:14:54.771Z,0
2019-02-22T07:15:54.754Z,0
2019-02-22T07:16:54.735Z,0
2019-02-22T07:17:54.475Z,0
2019-02-22T07:18:54.706Z,0
2019-02-22T07:19:54.695Z,0
2019-02-22T07:20:54.680Z,0
2019-02-22T07:21:55.645Z,0
2019-02-22T07:22:54.659Z,0
2019-02-22T07:23:54.637Z,0
2019-02-22T07:24:54.631Z,0
2019-02-22T07:25:54.610Z,0
2019-02-22T07:26:54.337Z,0
2019-02-22T07:27:54.578Z,0
2019-02-22T07:28:54.557Z,0
2019-02-22T07:29:54.541Z,0
2019-02-22T07:30:54.525Z,0
2019-02-22T07:32:05.194Z,0
2019-02-22T07:32:54.356Z,0
2019-02-22T07:33:54.489Z,0
2019-02-22T07:34:54.464Z,0
2019-02-22T07:35:54.253Z,0
2019-02-22T07:36:54.438Z,0
2019-02-22T07:37:54.419Z,0
2019-02-22T07:38:54.409Z,0
2019-02-22T07:39:54.392Z,0
2019-02-22T07:40:54.372Z,0
2019-02-22T07:41:54.363Z,0
2019-02-22T07:42:54.347Z,0
2019-02-22T07:43:54.326Z,0
2019-02-22T07:44:54.316Z,0
2019-02-22T07:45:54.301Z,0
2019-02-22T07:46:54.284Z,0
2019-02-22T07:47:54.268Z,0
2019-02-22T07:48:54.250Z,0
2019-02-22T07:49:54.238Z,0
2019-02-22T07:51:00.627Z,0
2019-02-22T07:51:54.209Z,0
2019-02-22T07:52:54.194Z,0
2019-02-22T07:53:54.176Z,0
2019-02-22T07:54:54.159Z,0
2019-02-22T07:55:54.144Z,0
2019-02-22T07:56:53.896Z,0
2019-02-22T07:57:53.868Z,0
2019-02-22T07:58:54.098Z,0
2019-02-22T07:59:53.835Z,0
2019-02-22T08:00:54.066Z,0
2019-02-22T08:01:54.054Z,0
2019-02-22T08:02:54.039Z,0
2019-02-22T08:03:54.027Z,0
2019-02-22T08:04:53.760Z,0
2019-02-22T08:05:53.995Z,0
2019-02-22T08:06:53.978Z,0
2019-02-22T08:07:53.961Z,0
2019-02-22T08:08:53.946Z,0
2019-02-22T08:09:53.931Z,0
2019-02-22T08:10:53.932Z,0
2019-02-22T08:11:53.903Z,0
2019-02-22T08:12:53.887Z,0
2019-02-22T08:13:53.869Z,0
2019-02-22T08:14:53.856Z,0
2019-02-22T08:15:53.842Z,0
2019-02-22T08:16:53.832Z,0
2019-02-22T08:17:53.808Z,0
2019-02-22T08:19:03.883Z,0
2019-02-22T08:19:53.777Z,0
2019-02-22T08:20:53.764Z,0
2019-02-22T08:21:53.750Z,0
2019-02-22T08:22:53.731Z,0
2019-02-22T08:23:53.723Z,0
2019-02-22T08:24:53.703Z,0
2019-02-22T08:25:53.689Z,0
2019-02-22T08:26:53.693Z,0
2019-02-22T08:27:56.660Z,0
2019-02-22T08:28:53.641Z,0
2019-02-22T08:29:53.657Z,0
2019-02-22T08:30:53.614Z,0
2019-02-22T08:31:53.595Z,0
2019-02-22T08:32:53.584Z,0
2019-02-22T08:33:53.625Z,0
2019-02-22T08:34:53.556Z,0
2019-02-22T08:35:53.535Z,0
2019-02-22T08:36:53.525Z,0
2019-02-22T08:37:53.264Z,0
2019-02-22T08:38:53.489Z,0
2019-02-22T08:40:02.251Z,0
2019-02-22T08:40:53.469Z,0
2019-02-22T08:41:53.446Z,0
2019-02-22T08:42:53.436Z,0
2019-02-22T08:43:53.419Z,0
2019-02-22T08:44:53.410Z,0
2019-02-22T08:45:53.385Z,0
2019-02-22T08:46:53.370Z,0
2019-02-22T08:47:53.354Z,0
2019-02-22T08:48:53.346Z,0
2019-02-22T08:49:53.328Z,0
2019-02-22T08:50:53.313Z,0
2019-02-22T08:51:53.058Z,0
2019-02-22T08:52:53.060Z,0
2019-02-22T08:53:53.269Z,0
2019-02-22T08:54:53.249Z,0
2019-02-22T08:55:53.238Z,0
2019-02-22T08:56:53.224Z,0
2019-02-22T08:57:53.210Z,0
2019-02-22T08:58:53.188Z,0
2019-02-22T08:59:52.928Z,0
2019-02-22T09:00:53.167Z,0
2019-02-22T09:01:53.149Z,0
2019-02-22T09:02:53.127Z,0
2019-02-22T09:03:53.773Z,0
2019-02-22T09:04:53.106Z,0
2019-02-22T09:05:53.082Z,0
2019-02-22T09:06:54.904Z,0
2019-02-22T09:07:53.056Z,0
2019-02-22T09:08:53.044Z,0
2019-02-22T09:09:52.782Z,0
2019-02-22T09:11:02.793Z,0
2019-02-22T09:11:52.995Z,0
2019-02-22T09:12:52.983Z,0
2019-02-22T09:13:52.968Z,0
2019-02-22T09:14:52.946Z,0
2019-02-22T09:15:52.937Z,0
2019-02-22T09:16:52.923Z,0
2019-02-22T09:17:55.272Z,0
2019-02-22T09:18:52.890Z,0
2019-02-22T09:19:52.629Z,0
2019-02-22T09:20:52.858Z,0
2019-02-22T09:21:52.843Z,0
2019-02-22T09:22:52.828Z,0
2019-02-22T09:23:52.814Z,0
2019-02-22T09:24:52.811Z,0
2019-02-22T09:25:52.790Z,0
2019-02-22T09:26:52.773Z,0
2019-02-22T09:27:52.564Z,0
2019-02-22T09:28:55.283Z,0
2019-02-22T09:30:01.321Z,0
2019-02-22T09:30:52.709Z,0
2019-02-22T09:31:52.692Z,0
2019-02-22T09:32:52.430Z,0
2019-02-22T09:33:52.668Z,0
2019-02-22T09:34:52.403Z,0
2019-02-22T09:35:52.641Z,0
2019-02-22T09:36:52.624Z,0
2019-02-22T09:37:52.606Z,0
2019-02-22T09:38:52.610Z,0
2019-02-22T09:39:52.572Z,0
2019-02-22T09:40:52.563Z,0
2019-02-22T09:41:52.581Z,0
2019-02-22T09:42:52.528Z,0
2019-02-22T09:43:57.941Z,0
2019-02-22T09:44:52.498Z,0
2019-02-22T09:45:52.486Z,0
2019-02-22T09:46:52.466Z,0
2019-02-22T09:47:52.205Z,0
2019-02-22T09:48:52.440Z,0
2019-02-22T09:49:52.427Z,0
2019-02-22T09:50:52.404Z,0
2019-02-22T09:51:52.395Z,0
2019-02-22T09:52:52.382Z,0
2019-02-22T09:53:52.369Z,0
2019-02-22T09:54:52.351Z,0
2019-02-22T09:55:52.332Z,0
2019-02-22T09:56:53.469Z,0
2019-02-22T09:57:52.307Z,0
2019-02-22T09:58:52.285Z,0
2019-02-22T09:59:52.271Z,0
2019-02-22T10:00:52.257Z,0
2019-02-22T10:01:52.269Z,0
2019-02-22T10:02:52.226Z,0
2019-02-22T10:03:52.215Z,0
2019-02-22T10:04:57.867Z,0
2019-02-22T10:05:52.182Z,0
2019-02-22T10:06:52.171Z,0
2019-02-22T10:07:52.153Z,0
2019-02-22T10:08:52.137Z,0
2019-02-22T10:09:51.880Z,0
2019-02-22T10:10:52.126Z,0
2019-02-22T10:11:52.092Z,0
2019-02-22T10:12:52.083Z,0
2019-02-22T10:13:52.062Z,0
2019-02-22T10:14:52.045Z,0
2019-02-22T10:15:52.038Z,0
2019-02-22T10:16:52.029Z,0
2019-02-22T10:17:52.005Z,0
2019-02-22T10:18:51.989Z,0
2019-02-22T10:19:51.975Z,0
2019-02-22T10:20:51.967Z,0
2019-02-22T10:21:51.944Z,0
2019-02-22T10:22:51.930Z,0
2019-02-22T10:23:51.915Z,0
2019-02-22T10:24:51.899Z,0
2019-02-22T10:25:51.893Z,0
2019-02-22T10:26:51.877Z,0
2019-02-22T10:27:51.862Z,0
2019-02-22T10:28:51.844Z,1.32
2019-02-22T10:29:51.834Z,3.51
2019-02-22T10:30:51.826Z,5.6
2019-02-22T10:31:51.799Z,6.64
2019-02-22T10:32:51.786Z,9.2
2019-02-22T10:33:51.775Z,9.77
2019-02-22T10:34:51.760Z,12.34
2019-02-22T10:35:51.740Z,11.38
2019-02-22T10:36:51.736Z,9.39
2019-02-22T10:37:51.725Z,8.54
2019-02-22T10:38:51.700Z,7.59
2019-02-22T10:39:51.684Z,7.02
2019-02-22T10:40:51.669Z,7.97
2019-02-22T10:41:51.659Z,8.25
2019-02-22T10:42:51.639Z,7.59
2019-02-22T10:43:51.623Z,5.6
2019-02-22T10:44:51.614Z,4.46
2019-02-22T10:45:51.599Z,3.31
2019-02-22T10:46:51.586Z,1.32
2019-02-22T10:47:51.583Z,0.47
2019-02-22T10:48:51.556Z,1.04
2019-02-22T10:49:51.541Z,1.8
2019-02-22T10:50:51.527Z,2.08
2019-02-22T10:51:51.526Z,1.32
2019-02-22T10:53:01.651Z,0.19
2019-02-22T10:53:51.478Z,0.19
2019-02-22T10:54:51.467Z,0
2019-02-22T10:55:51.453Z,0
2019-02-22T10:56:51.437Z,0
2019-02-22T10:57:51.422Z,0
2019-02-22T10:58:51.406Z,0
2019-02-22T10:59:51.388Z,0
2019-02-22T11:00:51.381Z,0
2019-02-22T11:01:51.357Z,0
2019-02-22T11:02:51.346Z,0
2019-02-22T11:03:51.329Z,0.76
2019-02-22T11:04:51.313Z,1.32
2019-02-22T11:05:51.301Z,0.28
2019-02-22T11:06:51.285Z,0
2019-02-22T11:07:51.273Z,0
2019-02-22T11:08:51.251Z,0
2019-02-22T11:09:51.467Z,0.85
2019-02-22T11:10:51.223Z,1.23
2019-02-22T11:11:50.965Z,3.22
2019-02-22T11:12:51.201Z,3.41
2019-02-22T11:13:51.185Z,2.27
2019-02-22T11:14:51.164Z,2.56
2019-02-22T11:15:50.897Z,2.08
2019-02-22T11:16:50.891Z,2.08
2019-02-22T11:17:51.116Z,2.08
2019-02-22T11:18:51.105Z,2.46
2019-02-22T11:19:51.088Z,3.22
2019-02-22T11:20:51.072Z,3.79
2019-02-22T11:21:51.056Z,3.41
2019-02-22T11:22:51.040Z,2.75
2019-02-22T11:23:51.027Z,2.37
2019-02-22T11:24:51.013Z,1.8
2019-02-22T11:25:50.997Z,0.47
2019-02-22T11:26:50.981Z,0
2019-02-22T11:27:50.963Z,0
2019-02-22T11:28:50.946Z,0
2019-02-22T11:29:51.953Z,0
2019-02-22T11:30:50.921Z,0
2019-02-22T11:31:50.904Z,0
2019-02-22T11:32:50.889Z,0.57
2019-02-22T11:33:50.872Z,1.04
2019-02-22T11:34:50.608Z,1.04
2019-02-22T11:35:50.837Z,0.47
2019-02-22T11:36:50.821Z,0
2019-02-22T11:37:50.804Z,0
2019-02-22T11:38:50.791Z,0
2019-02-22T11:39:50.773Z,0
2019-02-22T11:40:50.761Z,0
2019-02-22T11:41:50.744Z,0
2019-02-22T11:42:50.728Z,0
2019-02-22T11:43:50.711Z,0
2019-02-22T11:44:50.697Z,0
2019-02-22T11:45:52.183Z,0
2019-02-22T11:46:50.665Z,0
2019-02-22T11:47:50.406Z,0
2019-02-22T11:48:50.633Z,0
2019-02-22T11:49:50.615Z,0
2019-02-22T11:50:50.606Z,0
2019-02-22T11:51:50.595Z,0
2019-02-22T11:52:50.574Z,0
2019-02-22T11:53:50.551Z,0
2019-02-22T11:54:50.607Z,0
2019-02-22T11:55:50.526Z,0
2019-02-22T11:56:50.506Z,0
2019-02-22T11:57:50.507Z,0
2019-02-22T11:58:50.477Z,0
2019-02-22T11:59:50.485Z,0
2019-02-22T12:00:50.477Z,0
2019-02-22T12:01:50.426Z,0
2019-02-22T12:02:50.411Z,0
2019-02-22T12:03:50.147Z,0
2019-02-22T12:04:50.376Z,0
2019-02-22T12:05:50.480Z,0
2019-02-22T12:06:50.496Z,0
2019-02-22T12:07:50.606Z,0
2019-02-22T12:08:50.316Z,0
2019-02-22T12:09:50.304Z,0
2019-02-22T12:10:50.467Z,0
2019-02-22T12:11:50.265Z,0
2019-02-22T12:12:50.251Z,0
2019-02-22T12:13:50.501Z,0
2019-02-22T12:14:54.479Z,0
2019-02-22T12:15:50.203Z,0
2019-02-22T12:16:50.483Z,0
2019-02-22T12:17:50.523Z,0
2019-02-22T12:18:49.907Z,0
2019-02-22T12:19:50.144Z,0.57
2019-02-22T12:20:49.874Z,3.69
2019-02-22T12:21:50.110Z,4.83
2019-02-22T12:22:50.095Z,7.57
2019-02-22T12:23:52.843Z,8.91
2019-02-22T12:24:50.062Z,10.14
2019-02-22T12:25:50.047Z,10.42
2019-02-22T12:26:50.028Z,11.74
2019-02-22T12:27:50.016Z,12.79
2019-02-22T12:28:50.000Z,13.17
2019-02-22T12:29:49.995Z,13.26
2019-02-22T12:30:49.966Z,13.54
2019-02-22T12:31:49.961Z,13.35
2019-02-22T12:32:49.955Z,11.93
2019-02-22T12:33:49.916Z,12.32
2019-02-22T12:34:49.901Z,14.21
2019-02-22T12:35:49.882Z,16.86
2019-02-22T12:36:49.867Z,17.81
2019-02-22T12:37:49.853Z,18.57
2019-02-22T12:38:49.845Z,19.05
2019-02-22T12:39:49.820Z,19.24
2019-02-22T12:40:49.960Z,20
2019-02-22T12:41:49.786Z,22.37
2019-02-22T12:42:49.798Z,24.46
2019-02-22T12:43:49.754Z,26.54
2019-02-22T12:44:49.490Z,28.33
2019-02-22T12:45:49.726Z,30.32
2019-02-22T12:46:49.707Z,30.88
2019-02-22T12:47:49.694Z,29.56
2019-02-22T12:48:49.673Z,28.33
2019-02-22T12:49:49.661Z,25.86
2019-02-22T12:50:49.394Z,24.91
2019-02-22T12:51:49.632Z,24.16
2019-02-22T12:52:49.633Z,24.44
2019-02-22T12:53:49.605Z,23.97
2019-02-22T12:54:49.588Z,24.44
2019-02-22T12:55:49.563Z,24.63
2019-02-22T12:57:00.323Z,23.3
2019-02-22T12:57:49.530Z,22.27
2019-02-22T12:58:49.514Z,21.98
2019-02-22T12:59:49.500Z,21.31
2019-02-22T13:00:49.507Z,20.75
2019-02-22T13:01:49.468Z,20.65
2019-02-22T13:02:49.202Z,20.37
2019-02-22T13:03:49.435Z,19.8
2019-02-22T13:04:49.173Z,19.8
2019-02-22T13:05:49.497Z,20.75
2019-02-22T13:06:49.383Z,23.59
2019-02-22T13:07:49.368Z,24.52
2019-02-22T13:08:49.352Z,25.09
2019-02-22T13:09:49.381Z,24.52
2019-02-22T13:10:49.325Z,23.77
2019-02-22T13:11:49.448Z,24.05
2019-02-22T13:12:49.291Z,24.81
2019-02-22T13:13:49.272Z,24.71
2019-02-22T13:14:49.473Z,27.27
2019-02-22T13:15:49.243Z,27.17
2019-02-22T13:16:49.222Z,27.46
2019-02-22T13:17:49.210Z,28.88
2019-02-22T13:18:49.205Z,29.83
2019-02-22T13:19:49.650Z,30.02
2019-02-22T13:20:49.443Z,30.96
2019-02-22T13:21:49.199Z,31.93
2019-02-22T13:22:49.126Z,34
2019-02-22T13:23:49.423Z,34.38
2019-02-22T13:24:49.089Z,37.78
2019-02-22T13:25:49.075Z,40.53
2019-02-22T13:26:49.064Z,41.76
2019-02-22T13:27:48.793Z,44.89
2019-02-22T13:28:49.026Z,45.55
2019-02-22T13:29:49.009Z,43.75
2019-02-22T13:30:48.994Z,42.71
2019-02-22T13:31:48.980Z,41.28
2019-02-22T13:32:48.986Z,42.8
2019-02-22T13:33:48.946Z,43.37
2019-02-22T13:34:48.944Z,45.83
2019-02-22T13:35:48.923Z,50.57
2019-02-22T13:36:48.895Z,52.27
2019-02-22T13:37:48.887Z,51.04
2019-02-22T13:38:48.864Z,50.85
2019-02-22T13:39:48.842Z,53.03
2019-02-22T13:40:52.146Z,52.46
2019-02-22T13:41:48.810Z,51.89
2019-02-22T13:42:48.799Z,50
2019-02-22T13:43:48.781Z,48.68
2019-02-22T13:44:48.765Z,47.53
2019-02-22T13:45:48.747Z,47.53
2019-02-22T13:46:48.734Z,47.34
2019-02-22T13:47:48.714Z,47.53
2019-02-22T13:48:48.468Z,47.34
2019-02-22T13:49:48.679Z,50.38
2019-02-22T13:50:48.666Z,50.19
2019-02-22T13:51:48.650Z,53.31
2019-02-22T13:52:48.634Z,51.7
2019-02-22T13:53:48.621Z,50.19
2019-02-22T13:54:48.619Z,50.19
2019-02-22T13:55:48.586Z,54.74
2019-02-22T13:56:48.565Z,57.2
2019-02-22T13:57:48.550Z,58.05
2019-02-22T13:58:48.534Z,58.52
2019-02-22T13:59:50.584Z,58.43
2019-02-22T14:00:48.502Z,57.67
2019-02-22T14:01:48.485Z,56.63
2019-02-22T14:02:48.489Z,55.68
2019-02-22T14:03:48.451Z,54.64
2019-02-22T14:04:48.434Z,52.84
2019-02-22T14:05:48.415Z,53.59
2019-02-22T14:06:48.404Z,52.08
2019-02-22T14:07:48.384Z,50.85
2019-02-22T14:08:48.371Z,49.81
2019-02-22T14:09:48.348Z,49.22
2019-02-22T14:10:48.331Z,50.07
2019-02-22T14:11:48.313Z,48.86
2019-02-22T14:12:48.297Z,48.1
2019-02-22T14:13:48.334Z,49.22
2019-02-22T14:14:48.268Z,50.92
2019-02-22T14:15:48.255Z,53.03